createdAt,value
2022-12-28T05:17:15.895Z,69.31
2022-12-28T05:19:42.478Z,70.48
2022-12-28T05:22:11.952Z,69.90
2022-12-28T05:24:39.429Z,71.54
2022-12-28T05:27:06.115Z,70.03
2022-12-28T05:29:32.677Z,70.22
2022-12-28T05:31:59.397Z,70.25
2022-12-28T05:34:26.180Z,70.59
2022-12-28T05:36:52.939Z,70.83
2022-12-28T05:39:19.536Z,70.75
2022-12-28T05:41:46.055Z,70.05
2022-12-28T05:44:12.553Z,70.00
2022-12-28T05:46:39.066Z,71.67
2022-12-28T05:49:09.193Z,71.08
2022-12-28T05:51:36.103Z,71.05
2022-12-28T05:54:06.549Z,71.72
2022-12-28T05:56:33.626Z,71.13
2022-12-28T05:59:02.478Z,72.90
2022-12-28T06:01:32.140Z,71.70
2022-12-28T06:04:03.656Z,71.96
2022-12-28T06:06:31.091Z,71.57
2022-12-28T06:08:57.932Z,71.89
2022-12-28T06:11:27.071Z,71.42
2022-12-28T06:13:54.387Z,72.42
2022-12-28T06:16:26.204Z,72.27
2022-12-28T06:18:52.881Z,71.26
2022-12-28T06:21:20.691Z,71.35
2022-12-28T06:23:47.683Z,70.24
2022-12-28T06:26:17.363Z,70.98
2022-12-28T06:28:44.491Z,71.85
2022-12-28T06:31:22.171Z,72.16
2022-12-28T06:33:49.786Z,70.79
2022-12-28T06:36:20.542Z,71.01
2022-12-28T06:38:48.895Z,70.41
2022-12-28T06:41:16.943Z,71.41
2022-12-28T06:43:45.078Z,72.51
2022-12-28T06:46:12.978Z,72.87
2022-12-28T06:48:40.522Z,73.74
2022-12-28T06:51:11.442Z,74.52
2022-12-28T06:53:38.648Z,73.76
2022-12-28T06:56:07.884Z,73.97
2022-12-28T06:58:34.582Z,75.17
2022-12-28T07:01:16.119Z,73.96
2022-12-28T07:03:43.803Z,74.63
2022-12-28T07:06:11.488Z,72.44
2022-12-28T07:08:38.005Z,74.17
2022-12-28T07:11:05.952Z,74.15
2022-12-28T07:13:33.434Z,74.18
2022-12-28T07:16:11.531Z,73.92
2022-12-28T07:18:38.812Z,74.41
2022-12-28T07:21:13.918Z,74.80
2022-12-28T07:23:40.454Z,74.82
2022-12-28T07:26:10.128Z,74.48
2022-12-28T07:28:38.510Z,75.05
2022-12-28T07:31:07.062Z,74.98
2022-12-28T07:33:35.163Z,74.08
2022-12-28T07:36:02.623Z,73.56
2022-12-28T07:38:29.162Z,74.30
2022-12-28T07:41:08.035Z,73.70
2022-12-28T07:43:35.697Z,73.23
2022-12-28T07:46:08.287Z,74.14
2022-12-28T07:48:35.934Z,73.29
2022-12-28T07:51:20.708Z,72.96
2022-12-28T07:53:49.387Z,73.69
2022-12-28T07:56:18.895Z,73.74
2022-12-28T08:01:17.583Z,72.92
2022-12-28T08:03:44.713Z,72.49
2022-12-28T08:06:20.115Z,72.15
2022-12-28T08:08:50.305Z,73.10
2022-12-28T08:11:19.959Z,73.05
2022-12-28T08:13:48.132Z,72.62
2022-12-28T08:16:16.143Z,73.51
2022-12-28T08:18:43.010Z,73.25
2022-12-28T08:21:15.937Z,73.98
2022-12-28T08:23:42.981Z,74.21
2022-12-28T08:26:13.942Z,73.72
2022-12-28T08:28:41.882Z,74.19
2022-12-28T08:31:11.622Z,73.04
2022-12-28T08:33:38.439Z,73.88
2022-12-28T08:36:06.084Z,75.00
2022-12-28T08:38:33.300Z,73.29
2022-12-28T08:41:01.753Z,74.07
2022-12-28T08:43:29.668Z,74.00
2022-12-28T08:46:01.855Z,74.33
2022-12-28T08:48:29.061Z,74.67
2022-12-28T08:51:04.605Z,74.38
2022-12-28T08:53:31.690Z,74.88
2022-12-28T08:56:13.416Z,74.03
2022-12-28T08:58:41.391Z,73.30
2022-12-28T09:01:13.904Z,72.92
2022-12-28T09:03:42.413Z,73.44
2022-12-28T09:06:12.197Z,73.14
2022-12-28T09:08:39.722Z,73.77
2022-12-28T09:11:13.391Z,73.16
2022-12-28T09:13:40.832Z,72.67
2022-12-28T09:16:13.048Z,72.97
2022-12-28T09:18:41.316Z,73.92
2022-12-28T09:21:17.024Z,71.61
2022-12-28T09:23:45.364Z,72.23
2022-12-28T09:26:15.286Z,72.43
2022-12-28T09:28:47.584Z,70.94
2022-12-28T09:31:15.219Z,72.00
2022-12-28T09:36:47.265Z,72.18
2022-12-28T09:39:17.657Z,71.39
2022-12-28T09:41:51.047Z,71.96
2022-12-28T09:44:41.711Z,71.49
2022-12-28T09:47:08.169Z,72.29
2022-12-28T09:50:03.808Z,72.02
2022-12-28T09:52:34.581Z,71.03
2022-12-28T09:55:07.420Z,71.24
2022-12-28T09:57:38.805Z,70.82
2022-12-28T10:00:08.148Z,70.09
2022-12-28T10:02:40.138Z,70.13
2022-12-28T10:05:07.681Z,70.86
2022-12-28T10:07:36.895Z,69.71
2022-12-28T10:10:04.989Z,70.26
2022-12-28T10:12:31.683Z,69.32
2022-12-28T10:14:59.872Z,69.17
2022-12-28T10:17:28.877Z,68.48
2022-12-28T10:19:58.429Z,68.17
2022-12-28T10:22:33.286Z,67.84
2022-12-28T10:25:02.550Z,68.73
2022-12-28T10:27:32.159Z,66.93
2022-12-28T10:30:01.707Z,67.36
2022-12-28T10:32:47.966Z,67.36
2022-12-28T10:35:26.471Z,68.23
2022-12-28T10:38:02.831Z,68.94
2022-12-28T10:40:32.769Z,68.58
2022-12-28T10:43:02.091Z,70.01
2022-12-28T10:45:39.808Z,69.67
2022-12-28T10:48:36.679Z,68.29
2022-12-28T10:51:21.512Z,69.19
2022-12-28T10:53:51.275Z,70.18
2022-12-28T10:56:29.389Z,70.67
2022-12-28T10:59:25.657Z,70.10
2022-12-28T11:01:52.222Z,68.73
2022-12-28T11:04:21.833Z,68.87
2022-12-28T11:06:56.169Z,69.03
2022-12-28T11:09:26.059Z,69.33
2022-12-28T11:11:56.048Z,69.24
2022-12-28T11:14:33.926Z,68.95
2022-12-28T11:17:18.052Z,68.56
2022-12-28T11:19:45.049Z,68.09
2022-12-28T11:22:13.451Z,68.66
2022-12-28T11:24:40.597Z,68.50
2022-12-28T11:27:13.553Z,69.49
2022-12-28T11:29:46.259Z,69.25
2022-12-28T11:32:27.541Z,68.53
2022-12-28T11:35:03.081Z,69.61
2022-12-28T11:37:29.667Z,68.59
2022-12-28T11:39:56.392Z,68.67
2022-12-28T11:42:40.823Z,67.74
2022-12-28T11:45:46.436Z,68.48
2022-12-28T11:48:38.903Z,67.72
2022-12-28T11:51:05.895Z,67.91
2022-12-28T11:53:42.838Z,67.83
2022-12-28T11:56:11.467Z,67.07
2022-12-28T11:58:40.950Z,67.94
2022-12-28T12:01:33.606Z,68.17
2022-12-28T12:04:00.233Z,67.55
2022-12-28T12:06:53.471Z,68.42
2022-12-28T12:09:25.964Z,68.50
2022-12-28T12:12:00.945Z,68.17
2022-12-28T12:14:35.209Z,67.66
2022-12-28T12:17:32.044Z,67.72
2022-12-28T12:20:07.051Z,68.18
2022-12-28T12:22:44.095Z,68.42
2022-12-28T12:25:16.791Z,67.71
2022-12-28T12:27:48.514Z,66.92
2022-12-28T12:30:22.493Z,67.63
2022-12-28T12:32:52.075Z,67.00
2022-12-28T12:35:24.850Z,68.41
2022-12-28T12:38:20.614Z,67.60
2022-12-28T12:41:08.862Z,68.51
2022-12-28T12:43:57.544Z,69.44
2022-12-28T12:46:48.532Z,70.42
2022-12-28T12:49:27.304Z,70.93
2022-12-28T12:52:23.066Z,70.50
2022-12-28T12:55:06.191Z,71.89
2022-12-28T12:57:44.744Z,71.00
2022-12-28T13:00:14.630Z,71.35
2022-12-28T13:02:53.300Z,70.93
2022-12-28T13:05:23.646Z,70.96
2022-12-28T13:07:50.899Z,70.88
2022-12-28T13:10:23.382Z,70.29
2022-12-28T13:12:59.728Z,70.13
2022-12-28T13:15:27.127Z,70.44
2022-12-28T13:18:44.015Z,70.10
2022-12-28T13:21:12.867Z,70.35
2022-12-28T13:23:45.163Z,69.62
2022-12-28T13:26:14.539Z,70.45
2022-12-28T13:28:53.615Z,69.55
2022-12-28T13:31:31.704Z,69.47
2022-12-28T13:34:03.629Z,69.46
2022-12-28T13:36:30.497Z,69.46
2022-12-28T13:39:15.476Z,69.53
2022-12-28T13:41:53.677Z,68.53
2022-12-28T13:44:50.351Z,67.94
2022-12-28T13:47:26.078Z,68.55
2022-12-28T13:50:21.932Z,68.95
2022-12-28T13:52:54.386Z,68.78
2022-12-28T13:55:27.143Z,68.65
2022-12-28T13:58:00.142Z,68.69
2022-12-28T14:00:29.191Z,68.75
2022-12-28T14:02:58.613Z,69.11
2022-12-28T14:05:28.367Z,68.17
2022-12-28T14:07:58.509Z,68.32
2022-12-28T14:10:26.120Z,68.14
2022-12-28T14:12:53.692Z,67.95
2022-12-28T14:15:22.042Z,68.29
2022-12-28T14:17:51.963Z,68.24
2022-12-28T14:20:19.213Z,68.82
2022-12-28T14:22:45.844Z,68.93
2022-12-28T14:25:15.515Z,68.55
2022-12-28T14:28:06.218Z,68.34
2022-12-28T14:30:39.649Z,68.39
2022-12-28T14:33:24.367Z,68.36
2022-12-28T14:35:58.933Z,68.30
2022-12-28T14:38:28.991Z,67.79
2022-12-28T14:40:58.900Z,67.73
2022-12-28T14:43:31.914Z,67.44
2022-12-28T14:46:15.610Z,67.85
2022-12-28T14:48:45.429Z,66.98
2022-12-28T14:51:14.965Z,67.01
2022-12-28T14:53:42.038Z,66.42
2022-12-28T14:56:16.354Z,66.68
2022-12-28T14:58:52.109Z,66.40
2022-12-28T15:01:21.570Z,66.95
2022-12-28T15:03:51.000Z,67.00
2022-12-28T15:06:19.844Z,67.10
2022-12-28T15:08:50.906Z,66.35
2022-12-28T15:11:19.265Z,65.69
2022-12-28T15:13:46.337Z,65.48
2022-12-28T15:16:13.742Z,65.30
2022-12-28T15:18:45.110Z,65.33
2022-12-28T15:21:13.434Z,66.90
2022-12-28T15:23:39.902Z,67.67
2022-12-28T15:26:11.496Z,67.47
2022-12-28T15:28:38.762Z,67.28
2022-12-28T15:31:18.362Z,67.38
2022-12-28T15:33:45.841Z,67.53
2022-12-28T15:36:17.798Z,68.08
2022-12-28T15:38:46.003Z,68.17
2022-12-28T15:41:41.877Z,68.08
2022-12-28T15:44:08.375Z,67.46
2022-12-28T15:46:35.380Z,67.09
2022-12-28T15:49:02.674Z,68.17
2022-12-28T15:51:29.225Z,67.81
2022-12-28T15:53:55.685Z,67.43
2022-12-28T15:56:23.880Z,68.64
2022-12-28T15:58:53.674Z,67.96
2022-12-28T16:01:20.471Z,68.25
2022-12-28T16:03:54.961Z,67.15
2022-12-28T16:06:23.021Z,67.14
2022-12-28T16:08:53.188Z,66.64
2022-12-28T16:11:20.737Z,67.22
2022-12-28T16:13:55.188Z,66.53
2022-12-28T16:16:22.936Z,67.08
2022-12-28T16:18:50.582Z,66.68
2022-12-28T16:21:17.192Z,66.93
2022-12-28T16:23:45.066Z,66.31
2022-12-28T16:26:13.340Z,65.88
2022-12-28T16:28:40.317Z,66.28
2022-12-28T16:31:07.143Z,66.02
2022-12-28T16:33:33.852Z,65.69
2022-12-28T16:36:00.349Z,65.75
2022-12-28T16:38:28.866Z,65.31
2022-12-28T16:40:56.983Z,65.14
2022-12-28T16:43:23.916Z,64.66
2022-12-28T16:45:50.782Z,63.63
2022-12-28T16:48:17.466Z,63.50
2022-12-28T16:50:45.069Z,64.32
2022-12-28T16:53:11.635Z,63.76
2022-12-28T16:55:43.392Z,63.50
2022-12-28T16:58:10.573Z,64.76
2022-12-28T17:00:41.480Z,64.54
2022-12-28T17:03:08.194Z,64.10
2022-12-28T17:05:35.476Z,64.47
2022-12-28T17:11:11.381Z,64.01
2022-12-28T17:13:38.600Z,63.19
2022-12-28T17:16:06.733Z,62.19
2022-12-28T17:18:37.327Z,62.95
2022-12-28T17:21:18.250Z,63.53
2022-12-28T17:23:47.901Z,63.54
2022-12-28T17:26:14.651Z,63.17
2022-12-28T17:28:41.170Z,63.09
2022-12-28T17:31:14.301Z,63.31
2022-12-28T17:33:49.322Z,64.19
2022-12-28T17:36:25.061Z,63.58
2022-12-28T17:38:51.712Z,62.80
2022-12-28T17:41:24.463Z,63.50
2022-12-28T17:43:56.168Z,63.61
2022-12-28T17:46:25.972Z,63.96
2022-12-28T17:48:54.209Z,63.39
2022-12-28T17:51:21.418Z,63.32
2022-12-28T17:53:49.067Z,63.51
2022-12-28T17:56:16.299Z,63.96
2022-12-28T17:58:44.306Z,63.58
2022-12-28T18:01:13.053Z,63.91
2022-12-28T18:03:39.912Z,63.75
2022-12-28T18:06:07.433Z,63.59
2022-12-28T18:08:34.040Z,63.42
2022-12-28T18:11:00.943Z,62.60
2022-12-28T18:13:27.716Z,63.08
2022-12-28T18:15:55.042Z,63.47
2022-12-28T18:18:21.606Z,63.19
2022-12-28T18:21:21.697Z,63.39
2022-12-28T18:23:50.981Z,63.40
2022-12-28T18:26:22.480Z,63.41
2022-12-28T18:28:50.158Z,63.04
2022-12-28T18:31:17.058Z,63.57
2022-12-28T18:33:43.885Z,63.03
2022-12-28T18:36:16.812Z,62.91
2022-12-28T18:38:44.877Z,63.29
2022-12-28T18:41:13.613Z,62.90
2022-12-28T18:43:40.623Z,62.87
2022-12-28T18:46:08.942Z,62.48
2022-12-28T18:48:38.333Z,62.04
2022-12-28T18:51:08.584Z,61.76
2022-12-28T18:53:35.988Z,61.77
2022-12-28T18:56:09.050Z,61.12
2022-12-28T18:58:37.254Z,61.09
2022-12-28T19:01:06.729Z,60.72
2022-12-28T19:03:33.949Z,60.73
2022-12-28T19:06:09.399Z,60.70
2022-12-28T19:08:39.054Z,60.95
2022-12-28T19:11:06.633Z,60.61
2022-12-28T19:13:35.475Z,60.89
2022-12-28T19:16:08.576Z,60.63
2022-12-28T19:18:35.228Z,60.79
2022-12-28T19:21:31.659Z,60.52
2022-12-28T19:24:03.151Z,61.38
2022-12-28T19:26:31.228Z,61.04
2022-12-28T19:29:00.752Z,61.27
2022-12-28T19:31:28.114Z,61.69
2022-12-28T19:33:54.811Z,62.82
2022-12-28T19:36:21.320Z,62.58
2022-12-28T19:38:48.233Z,61.89
2022-12-28T19:41:16.349Z,62.16
2022-12-28T19:43:43.864Z,61.79
2022-12-28T19:46:30.801Z,63.21
2022-12-28T19:48:59.132Z,62.28
2022-12-28T19:51:30.502Z,62.51
2022-12-28T19:53:58.707Z,63.11
2022-12-28T19:56:25.599Z,62.99
2022-12-28T19:58:56.623Z,64.07
2022-12-28T20:01:29.037Z,63.75
2022-12-28T20:03:56.556Z,63.04
2022-12-28T20:06:27.435Z,63.42
2022-12-28T20:08:56.945Z,63.12
2022-12-28T20:11:23.969Z,63.87
2022-12-28T20:13:52.010Z,64.72
2022-12-28T20:16:19.468Z,64.02
2022-12-28T20:18:50.580Z,63.70
2022-12-28T20:21:20.347Z,63.18
2022-12-28T20:23:48.882Z,63.41
2022-12-28T20:26:16.241Z,63.95
2022-12-28T20:28:43.278Z,63.85
2022-12-28T20:31:13.983Z,62.81
2022-12-28T20:33:43.303Z,63.33
2022-12-28T20:37:00.555Z,63.25
2022-12-28T20:39:27.095Z,62.91
2022-12-28T20:42:12.392Z,63.72
2022-12-28T20:44:39.028Z,64.36
2022-12-28T20:47:05.675Z,63.52
2022-12-28T20:49:32.385Z,63.65
2022-12-28T20:51:58.974Z,63.97
2022-12-28T20:54:25.778Z,64.29
2022-12-28T20:56:55.440Z,63.79
2022-12-28T20:59:24.645Z,64.25
2022-12-28T21:01:51.964Z,63.40
2022-12-28T21:04:18.579Z,63.26
2022-12-28T21:06:45.922Z,63.17
2022-12-28T21:09:12.634Z,63.54
2022-12-28T21:11:39.450Z,63.04
2022-12-28T21:14:06.272Z,63.62
2022-12-28T21:16:33.807Z,64.41
2022-12-28T21:19:00.470Z,64.63
2022-12-28T21:21:26.999Z,63.98
2022-12-28T21:24:02.887Z,64.08
2022-12-28T21:26:55.604Z,64.90
2022-12-28T21:29:26.024Z,64.31
2022-12-28T21:31:53.263Z,65.02
2022-12-28T21:34:23.303Z,64.07
2022-12-28T21:37:36.973Z,64.60
2022-12-28T21:40:09.737Z,64.20
2022-12-28T21:42:36.440Z,65.44
2022-12-28T21:45:04.128Z,64.17
2022-12-28T21:47:31.098Z,64.01
2022-12-28T21:49:58.141Z,63.96
2022-12-28T21:52:24.869Z,64.07
2022-12-28T21:54:51.542Z,64.27
2022-12-28T21:57:18.279Z,64.52
2022-12-28T21:59:44.795Z,64.07
2022-12-28T22:02:35.719Z,63.74
2022-12-28T22:05:03.598Z,64.05
2022-12-28T22:07:30.767Z,63.65
2022-12-28T22:10:16.797Z,63.31
2022-12-28T22:12:43.338Z,63.44
2022-12-28T22:15:37.628Z,63.08
2022-12-28T22:18:07.428Z,64.38
2022-12-28T22:20:36.903Z,65.25
2022-12-28T22:23:04.417Z,64.46
2022-12-28T22:25:31.310Z,64.23
2022-12-28T22:27:58.588Z,63.84
2022-12-28T22:30:25.567Z,63.97
2022-12-28T22:32:52.158Z,64.22
2022-12-28T22:35:18.835Z,64.90
2022-12-28T22:37:45.617Z,64.98
2022-12-28T22:40:13.054Z,63.70
2022-12-28T22:42:44.078Z,64.18
2022-12-28T22:45:12.271Z,64.29
2022-12-28T22:47:39.218Z,64.52
2022-12-28T22:50:07.921Z,64.25
2022-12-28T22:52:34.601Z,64.36
2022-12-28T22:55:01.302Z,64.36
2022-12-28T22:57:28.225Z,64.73
2022-12-28T22:59:54.760Z,65.14
